createdAt,value
2019-04-28T00:02:03.417Z,10.18
2019-04-28T00:04:31.556Z,10.20
2019-04-28T00:06:58.461Z,9.69
2019-04-28T00:09:26.935Z,9.89
2019-04-28T00:11:54.417Z,9.88
2019-04-28T00:14:22.075Z,10.19
2019-04-28T00:16:51.108Z,9.92
2019-04-28T00:19:16.902Z,9.65
2019-04-28T00:21:46.780Z,9.96
2019-04-28T00:24:16.158Z,10.08
2019-04-28T00:26:43.659Z,10.19
2019-04-28T00:29:11.273Z,9.72
2019-04-28T00:31:38.575Z,9.78
2019-04-28T00:34:06.212Z,9.88
2019-04-28T00:36:33.675Z,9.78
2019-04-28T00:39:01.647Z,9.79
2019-04-28T00:41:30.756Z,9.80
2019-04-28T00:43:56.243Z,9.71
2019-04-28T00:46:27.544Z,9.54
2019-04-28T00:48:54.936Z,9.88
2019-04-28T00:51:22.419Z,9.93
2019-04-28T00:53:50.893Z,9.68
2019-04-28T00:56:17.787Z,9.90
2019-04-28T00:58:45.267Z,10.01
2019-04-28T01:01:18.461Z,10.15
2019-04-28T01:03:45.958Z,9.57
2019-04-28T01:06:14.051Z,10.01
2019-04-28T01:08:41.969Z,10.04
2019-04-28T01:11:11.283Z,9.73
2019-04-28T01:13:37.512Z,10.25
2019-04-28T01:16:09.265Z,10.11
2019-04-28T01:18:36.865Z,10.10
2019-04-28T01:21:04.272Z,9.30
2019-04-28T01:23:31.729Z,9.27
2019-04-28T01:26:00.064Z,9.42
2019-04-28T01:28:26.574Z,9.64
2019-04-28T01:31:11.717Z,9.95
2019-04-28T01:33:51.917Z,9.34
2019-04-28T01:36:20.298Z,9.75
2019-04-28T01:38:46.847Z,9.66
2019-04-28T01:41:14.282Z,9.84
2019-04-28T01:43:42.408Z,9.59
2019-04-28T01:46:10.196Z,9.58
2019-04-28T01:48:37.378Z,9.42
2019-04-28T01:51:04.850Z,9.25
2019-04-28T01:53:32.306Z,9.01
2019-04-28T01:55:59.750Z,9.25
2019-04-28T01:58:27.186Z,9.22
2019-04-28T02:00:54.630Z,9.05
2019-04-28T02:03:22.117Z,9.25
2019-04-28T02:05:50.136Z,9.06
2019-04-28T02:08:17.727Z,9.02
2019-04-28T02:10:45.160Z,8.93
2019-04-28T02:13:12.873Z,8.87
2019-04-28T02:15:40.299Z,9.26
2019-04-28T02:18:07.712Z,8.98
2019-04-28T02:20:35.190Z,9.08
2019-04-28T02:23:02.605Z,9.31
2019-04-28T02:25:30.064Z,9.24
2019-04-28T02:27:59.494Z,9.29
2019-04-28T02:30:41.138Z,9.27
2019-04-28T02:32:52.513Z,9.37
2019-04-28T02:35:21.411Z,9.57
2019-04-28T02:37:47.397Z,9.49
2019-04-28T02:40:14.845Z,9.47
2019-04-28T02:42:42.324Z,9.05
2019-04-28T02:45:11.638Z,9.41
2019-04-28T02:47:37.246Z,9.31
2019-04-28T02:50:04.694Z,9.47
2019-04-28T02:52:37.733Z,9.01
2019-04-28T02:55:05.175Z,9.28
2019-04-28T02:57:32.670Z,9.47
2019-04-28T03:00:00.455Z,9.10
2019-04-28T03:02:27.578Z,9.09
2019-04-28T03:04:55.045Z,9.38
2019-04-28T03:07:22.486Z,9.27
2019-04-28T03:09:52.107Z,9.48
2019-04-28T03:12:17.740Z,9.53
2019-04-28T03:14:45.224Z,9.59
2019-04-28T03:17:12.653Z,9.28
2019-04-28T03:19:41.500Z,9.07
2019-04-28T03:22:07.584Z,8.98
2019-04-28T03:24:35.011Z,9.19
2019-04-28T03:27:21.007Z,9.16
2019-04-28T03:29:52.629Z,8.87
2019-04-28T03:32:44.482Z,8.88
2019-04-28T03:35:03.251Z,8.99
2019-04-28T03:37:26.293Z,8.88
2019-04-28T03:39:54.418Z,9.07
2019-04-28T03:42:22.003Z,9.03
2019-04-28T03:44:51.251Z,9.08
2019-04-28T03:47:16.840Z,9.11
2019-04-28T03:49:44.955Z,8.86
2019-04-28T03:54:35.180Z,8.99
2019-04-28T03:57:02.606Z,8.77
2019-04-28T03:59:31.191Z,8.86
2019-04-28T04:02:02.298Z,9.08
2019-04-28T04:04:24.884Z,9.17
2019-04-28T04:06:52.375Z,9.10
2019-04-28T04:09:21.573Z,9.27
2019-04-28T04:12:06.108Z,9.34
2019-04-28T04:14:35.584Z,8.77
2019-04-28T04:17:07.639Z,9.07
2019-04-28T04:19:35.069Z,9.51
2019-04-28T04:22:02.505Z,9.34
2019-04-28T04:24:30.607Z,8.98
2019-04-28T04:27:00.646Z,9.21
2019-04-28T04:29:25.812Z,9.14
2019-04-28T04:32:09.335Z,8.97
2019-04-28T04:34:20.725Z,8.93
2019-04-28T04:36:50.729Z,8.87
2019-04-28T04:39:16.262Z,9.29
2019-04-28T04:41:43.989Z,9.61
2019-04-28T04:44:11.311Z,9.38
2019-04-28T04:46:41.204Z,9.52
2019-04-28T04:49:06.094Z,9.52
2019-04-28T04:51:33.537Z,9.32
2019-04-28T04:54:01.538Z,9.19
2019-04-28T04:56:30.178Z,9.29
2019-04-28T04:58:55.972Z,9.40
2019-04-28T05:01:24.818Z,9.17
2019-04-28T05:03:55.912Z,9.21
2019-04-28T05:06:29.827Z,9.43
2019-04-28T05:08:56.370Z,9.24
2019-04-28T05:11:23.804Z,9.34
2019-04-28T05:13:51.240Z,9.55
2019-04-28T05:16:19.749Z,9.47
2019-04-28T05:18:47.070Z,9.38
2019-04-28T05:21:14.538Z,9.60
2019-04-28T05:23:43.490Z,9.24
2019-04-28T05:26:11.367Z,9.14
2019-04-28T05:28:43.961Z,9.47
2019-04-28T05:31:05.869Z,9.44
2019-04-28T05:33:34.054Z,9.56
2019-04-28T05:36:02.838Z,9.78
2019-04-28T05:38:30.279Z,9.81
2019-04-28T05:40:55.865Z,9.68
2019-04-28T05:43:23.355Z,9.46
2019-04-28T05:45:50.813Z,9.61
2019-04-28T05:48:20.045Z,9.13
2019-04-28T05:50:46.420Z,9.43
2019-04-28T05:53:23.833Z,9.44
2019-04-28T05:56:06.158Z,9.05
2019-04-28T05:58:34.416Z,9.34
2019-04-28T06:01:20.403Z,9.34
2019-04-28T06:03:46.041Z,9.54
2019-04-28T06:06:13.536Z,9.57
2019-04-28T06:08:46.698Z,9.74
2019-04-28T06:11:20.500Z,9.49
2019-04-28T06:13:50.074Z,9.38
2019-04-28T06:16:16.735Z,8.95
2019-04-28T06:18:44.199Z,9.34
2019-04-28T06:21:11.630Z,9.02
2019-04-28T06:23:39.122Z,9.00
2019-04-28T06:26:06.685Z,9.36
2019-04-28T06:28:34.125Z,9.18
2019-04-28T06:31:01.592Z,9.20
2019-04-28T06:33:29.181Z,9.25
2019-04-28T06:35:56.643Z,9.33
2019-04-28T06:38:24.053Z,9.66
2019-04-28T06:40:51.532Z,9.37
2019-04-28T06:43:18.984Z,9.28
2019-04-28T06:45:46.406Z,9.17
2019-04-28T06:48:13.872Z,9.44
2019-04-28T06:50:41.314Z,9.16
2019-04-28T06:53:08.807Z,9.62
2019-04-28T06:55:36.282Z,9.24
2019-04-28T06:58:03.779Z,9.32
2019-04-28T07:00:31.230Z,9.49
2019-04-28T07:02:58.671Z,9.50
2019-04-28T07:05:26.114Z,9.11
2019-04-28T07:07:53.567Z,9.40
2019-04-28T07:10:25.019Z,9.44
2019-04-28T07:12:57.026Z,9.59
2019-04-28T07:15:24.607Z,9.48
2019-04-28T07:17:52.027Z,9.34
2019-04-28T07:20:35.033Z,9.46
2019-04-28T07:23:02.472Z,9.53
2019-04-28T07:25:29.904Z,9.56
2019-04-28T07:27:57.541Z,9.41
2019-04-28T07:30:25.050Z,9.32
2019-04-28T07:32:52.507Z,9.37
2019-04-28T07:35:19.973Z,9.31
2019-04-28T07:37:47.446Z,9.30
2019-04-28T07:40:14.886Z,9.54
2019-04-28T07:42:42.366Z,9.55
2019-04-28T07:45:10.793Z,9.52
2019-04-28T07:47:38.272Z,9.14
2019-04-28T07:50:05.739Z,9.53
2019-04-28T07:52:48.078Z,9.64
2019-04-28T07:55:16.489Z,9.93
2019-04-28T07:57:43.894Z,9.77
2019-04-28T08:00:11.368Z,10.06
2019-04-28T08:02:38.809Z,9.51
2019-04-28T08:05:06.289Z,9.46
2019-04-28T08:07:33.804Z,9.67
2019-04-28T08:10:01.258Z,9.78
2019-04-28T08:12:28.713Z,9.47
2019-04-28T08:14:56.166Z,9.58
2019-04-28T08:17:23.632Z,9.84
2019-04-28T08:19:51.133Z,9.74
2019-04-28T08:22:18.648Z,9.70
2019-04-28T08:24:46.222Z,9.59
2019-04-28T08:27:13.659Z,9.71
2019-04-28T08:29:41.113Z,9.89
2019-04-28T08:32:14.162Z,9.44
2019-04-28T08:34:41.678Z,9.84
2019-04-28T08:37:09.071Z,9.89
2019-04-28T08:39:36.496Z,10.08
2019-04-28T08:42:03.929Z,10.26
2019-04-28T08:44:31.374Z,10.17
2019-04-28T08:46:58.790Z,10.20
2019-04-28T08:49:26.243Z,10.45
2019-04-28T08:51:53.695Z,10.26
2019-04-28T08:54:22.576Z,10.52
2019-04-28T08:56:50.209Z,10.07
2019-04-28T08:59:17.650Z,10.42
2019-04-28T09:01:45.146Z,10.43
2019-04-28T09:04:15.514Z,10.65
2019-04-28T09:06:40.157Z,10.61
2019-04-28T09:09:07.714Z,10.98
2019-04-28T09:11:35.116Z,10.68
2019-04-28T09:14:02.678Z,10.91
2019-04-28T09:16:30.136Z,11.22
2019-04-28T09:18:57.643Z,11.13
2019-04-28T09:21:25.114Z,11.39
2019-04-28T09:23:52.590Z,11.21
2019-04-28T09:26:20.081Z,11.31
2019-04-28T09:28:47.487Z,11.60
2019-04-28T09:31:14.972Z,11.68
2019-04-28T09:33:42.529Z,11.01
2019-04-28T09:36:10.085Z,10.98
2019-04-28T09:38:37.628Z,11.10
2019-04-28T09:41:05.050Z,11.19
2019-04-28T09:43:38.143Z,11.25
2019-04-28T09:46:05.656Z,11.02
2019-04-28T09:48:33.199Z,11.21
2019-04-28T09:51:00.693Z,11.33
2019-04-28T09:53:28.105Z,11.58
2019-04-28T09:55:55.605Z,11.85
2019-04-28T09:58:23.132Z,11.74
2019-04-28T10:00:51.340Z,11.42
2019-04-28T10:03:18.840Z,11.20
2019-04-28T10:05:46.505Z,11.32
2019-04-28T10:08:14.005Z,11.23
2019-04-28T10:10:41.446Z,11.22
2019-04-28T10:13:08.863Z,11.00
2019-04-28T10:15:36.418Z,10.93
2019-04-28T10:18:03.856Z,10.97
2019-04-28T10:20:31.352Z,11.15
2019-04-28T10:22:58.827Z,11.07
2019-04-28T10:25:26.282Z,11.37
2019-04-28T10:27:53.744Z,11.62
2019-04-28T10:30:21.214Z,11.49
2019-04-28T10:32:48.740Z,11.22
2019-04-28T10:35:16.188Z,10.93
2019-04-28T10:37:45.534Z,11.23
2019-04-28T10:40:12.990Z,11.05
2019-04-28T10:42:40.553Z,10.65
2019-04-28T10:45:08.089Z,10.88
2019-04-28T10:47:35.627Z,10.97
2019-04-28T10:50:03.169Z,10.80
2019-04-28T10:52:30.682Z,10.79
2019-04-28T10:54:58.219Z,11.30
2019-04-28T10:57:25.683Z,11.03
2019-04-28T10:59:53.270Z,11.15
2019-04-28T11:02:20.804Z,10.92
2019-04-28T11:04:49.598Z,11.28
2019-04-28T11:07:17.045Z,11.28
2019-04-28T11:10:00.161Z,11.45
2019-04-28T11:12:27.646Z,11.34
2019-04-28T11:14:55.141Z,11.21
2019-04-28T11:17:22.660Z,11.34
2019-04-28T11:19:50.100Z,11.25
2019-04-28T11:22:17.827Z,11.58
2019-04-28T11:24:45.302Z,11.57
2019-04-28T11:27:12.803Z,11.49
2019-04-28T11:29:40.355Z,11.59
2019-04-28T11:32:07.888Z,11.67
2019-04-28T11:34:36.080Z,11.40
2019-04-28T11:37:03.538Z,11.66
2019-04-28T11:39:31.912Z,11.61
2019-04-28T11:41:59.356Z,11.26
2019-04-28T11:44:26.797Z,11.48
2019-04-28T11:46:55.359Z,11.61
2019-04-28T11:49:22.831Z,12.24
2019-04-28T11:51:50.327Z,12.21
2019-04-28T11:54:17.796Z,12.03
2019-04-28T11:56:45.258Z,12.11
2019-04-28T11:59:12.709Z,11.83
2019-04-28T12:01:40.126Z,12.44
2019-04-28T12:04:07.594Z,12.45
2019-04-28T12:06:35.017Z,12.48
2019-04-28T12:09:17.386Z,12.76
2019-04-28T12:11:44.850Z,12.84
2019-04-28T12:14:14.819Z,12.87
2019-04-28T12:16:46.297Z,12.91
2019-04-28T12:19:13.794Z,13.07
2019-04-28T12:21:41.214Z,13.12
2019-04-28T12:24:08.714Z,13.08
2019-04-28T12:26:36.175Z,13.32
2019-04-28T12:29:03.672Z,13.21
2019-04-28T12:31:31.142Z,12.94
2019-04-28T12:33:58.588Z,12.99
2019-04-28T12:36:26.073Z,13.15
2019-04-28T12:38:53.632Z,13.31
2019-04-28T12:41:21.085Z,13.52
2019-04-28T12:43:48.553Z,13.62
2019-04-28T12:46:16.027Z,13.44
2019-04-28T12:48:43.522Z,12.91
2019-04-28T12:51:11.052Z,13.23
2019-04-28T12:53:38.604Z,12.99
2019-04-28T12:56:06.102Z,13.29
2019-04-28T12:58:33.558Z,13.51
2019-04-28T13:01:01.048Z,13.30
2019-04-28T13:03:34.130Z,13.51
2019-04-28T13:06:05.564Z,13.43
2019-04-28T13:08:29.106Z,13.58
2019-04-28T13:10:56.581Z,13.40
2019-04-28T13:13:24.012Z,12.90
2019-04-28T13:15:51.471Z,13.13
2019-04-28T13:18:18.958Z,13.04
2019-04-28T13:20:46.442Z,12.54
2019-04-28T13:23:13.849Z,12.42
2019-04-28T13:25:42.918Z,12.81
2019-04-28T13:28:10.499Z,13.12
2019-04-28T13:30:37.969Z,12.90
2019-04-28T13:33:05.450Z,12.72
2019-04-28T13:35:32.957Z,12.37
2019-04-28T13:38:02.372Z,13.03
2019-04-28T13:40:30.236Z,13.22
2019-04-28T13:42:57.682Z,13.05
2019-04-28T13:45:25.143Z,12.92
2019-04-28T13:47:52.580Z,13.14
2019-04-28T13:50:20.522Z,13.25
2019-04-28T13:52:48.744Z,13.50
2019-04-28T13:55:23.771Z,13.55
2019-04-28T13:57:51.173Z,13.17
2019-04-28T14:00:19.410Z,13.11
2019-04-28T14:02:50.586Z,13.06
2019-04-28T14:05:23.702Z,13.10
2019-04-28T14:07:51.181Z,12.95
2019-04-28T14:10:18.727Z,12.62
2019-04-28T14:12:46.862Z,12.26
2019-04-28T14:15:14.392Z,12.27
2019-04-28T14:17:41.875Z,12.84
2019-04-28T14:20:09.390Z,12.89
2019-04-28T14:22:36.828Z,12.54
2019-04-28T14:25:04.322Z,12.10
2019-04-28T14:27:31.821Z,12.30
2019-04-28T14:29:59.272Z,11.87
2019-04-28T14:32:26.740Z,11.81
2019-04-28T14:34:54.214Z,11.76
2019-04-28T14:37:21.616Z,11.96
2019-04-28T14:39:49.145Z,11.83
2019-04-28T14:42:16.746Z,12.17
2019-04-28T14:44:44.162Z,12.43
2019-04-28T14:47:12.289Z,12.53
2019-04-28T14:49:39.785Z,12.37
2019-04-28T14:52:07.196Z,12.01
2019-04-28T14:54:34.790Z,12.05
2019-04-28T14:57:02.259Z,12.00
2019-04-28T14:59:31.859Z,11.84
2019-04-28T15:02:05.150Z,11.97
2019-04-28T15:04:38.336Z,12.09
2019-04-28T15:07:05.846Z,11.77
2019-04-28T15:09:50.031Z,11.93
2019-04-28T15:12:17.887Z,12.30
2019-04-28T15:14:45.371Z,12.64
2019-04-28T15:17:12.828Z,12.64
2019-04-28T15:19:40.400Z,12.61
2019-04-28T15:22:08.506Z,12.91
2019-04-28T15:24:36.009Z,12.94
2019-04-28T15:27:03.510Z,13.14
2019-04-28T15:29:31.204Z,12.92
2019-04-28T15:31:58.666Z,12.69
2019-04-28T15:34:26.111Z,13.12
2019-04-28T15:36:53.509Z,13.31
2019-04-28T15:39:20.961Z,13.16
2019-04-28T15:41:48.406Z,12.99
2019-04-28T15:44:15.815Z,12.85
2019-04-28T15:46:43.296Z,12.84
2019-04-28T15:49:10.743Z,13.05
2019-04-28T15:51:38.216Z,13.27
2019-04-28T15:54:05.718Z,12.96
2019-04-28T15:56:33.182Z,13.17
2019-04-28T15:59:01.702Z,12.98
2019-04-28T16:01:29.196Z,13.25
2019-04-28T16:03:56.610Z,13.09
2019-04-28T16:06:24.053Z,13.00
2019-04-28T16:08:51.635Z,13.53
2019-04-28T16:11:19.067Z,13.73
2019-04-28T16:13:46.502Z,13.53
2019-04-28T16:16:14.004Z,13.21
2019-04-28T16:18:41.450Z,12.92
2019-04-28T16:21:09.054Z,13.02
2019-04-28T16:23:36.610Z,13.46
2019-04-28T16:26:04.153Z,13.64
2019-04-28T16:28:32.478Z,13.72
2019-04-28T16:30:59.948Z,13.82
2019-04-28T16:33:27.445Z,13.81
2019-04-28T16:35:54.880Z,13.86
2019-04-28T16:38:22.366Z,13.89
2019-04-28T16:40:49.968Z,13.92
2019-04-28T16:43:17.854Z,13.82
2019-04-28T16:45:45.348Z,13.76
2019-04-28T16:48:12.843Z,13.82
2019-04-28T16:50:40.375Z,13.83
2019-04-28T16:53:07.804Z,13.80
2019-04-28T16:55:36.667Z,13.84
2019-04-28T16:58:09.829Z,13.83
2019-04-28T17:00:53.106Z,13.86
2019-04-28T17:03:20.566Z,13.53
2019-04-28T17:05:48.061Z,13.45
2019-04-28T17:08:16.733Z,12.98
2019-04-28T17:10:44.228Z,12.75
2019-04-28T17:13:11.675Z,12.75
2019-04-28T17:15:39.149Z,12.51
2019-04-28T17:18:06.593Z,13.03
2019-04-28T17:20:34.097Z,13.22
2019-04-28T17:23:01.556Z,13.31
2019-04-28T17:25:29.026Z,13.33
2019-04-28T17:27:56.544Z,13.31
2019-04-28T17:30:24.085Z,13.22
2019-04-28T17:32:51.572Z,12.94
2019-04-28T17:35:19.078Z,12.61
2019-04-28T17:37:46.602Z,12.72
2019-04-28T17:40:14.105Z,13.10
2019-04-28T17:42:41.531Z,13.15
2019-04-28T17:45:09.050Z,12.68
2019-04-28T17:47:36.542Z,12.62
2019-04-28T17:50:04.209Z,12.34
2019-04-28T17:52:31.672Z,12.68
2019-04-28T17:54:59.617Z,12.91
2019-04-28T17:57:27.158Z,12.82
2019-04-28T17:59:54.580Z,12.21
2019-04-28T18:02:39.971Z,12.20
2019-04-28T18:05:09.998Z,12.23
2019-04-28T18:07:37.554Z,12.37
2019-04-28T18:10:05.047Z,12.68
2019-04-28T18:12:32.548Z,12.78
2019-04-28T18:15:00.077Z,12.92
2019-04-28T18:17:45.088Z,12.98
2019-04-28T18:20:12.620Z,12.89
2019-04-28T18:22:40.107Z,12.88
2019-04-28T18:25:08.344Z,12.94
2019-04-28T18:27:35.860Z,13.02
2019-04-28T18:30:04.476Z,13.10
2019-04-28T18:32:46.776Z,12.92
2019-04-28T18:35:21.633Z,12.75
2019-04-28T18:38:04.901Z,12.84
2019-04-28T18:40:48.030Z,12.54
2019-04-28T18:43:21.456Z,11.90
2019-04-28T18:45:48.881Z,11.64
2019-04-28T18:48:16.313Z,11.55
2019-04-28T18:50:43.757Z,11.46
2019-04-28T18:53:12.219Z,11.54
2019-04-28T18:55:39.632Z,11.84
2019-04-28T18:58:07.109Z,12.08
2019-04-28T19:00:35.580Z,11.27
2019-04-28T19:03:03.070Z,11.32
2019-04-28T19:05:30.512Z,11.13
2019-04-28T19:08:14.684Z,10.88
2019-04-28T19:10:44.067Z,10.94
2019-04-28T19:13:16.707Z,11.03
2019-04-28T19:15:49.844Z,11.02
2019-04-28T19:18:21.548Z,11.08
2019-04-28T19:20:49.061Z,11.34
2019-04-28T19:23:16.524Z,11.55
2019-04-28T19:25:43.998Z,11.55
2019-04-28T19:28:11.477Z,11.44
2019-04-28T19:30:38.948Z,11.38
2019-04-28T19:33:06.412Z,11.18
2019-04-28T19:35:33.875Z,10.99
2019-04-28T19:38:01.357Z,11.04
2019-04-28T19:40:28.775Z,11.07
2019-04-28T19:42:56.247Z,11.05
2019-04-28T19:45:23.674Z,11.04
2019-04-28T19:47:51.111Z,10.78
2019-04-28T19:50:18.620Z,10.41
2019-04-28T19:52:46.116Z,10.23
2019-04-28T19:55:18.082Z,10.23
2019-04-28T19:57:45.520Z,10.19
2019-04-28T20:00:32.971Z,9.88
2019-04-28T20:03:00.460Z,10.06
2019-04-28T20:05:27.992Z,9.83
2019-04-28T20:07:55.453Z,9.85
2019-04-28T20:10:22.902Z,9.80
2019-04-28T20:12:50.351Z,9.76
2019-04-28T20:15:18.754Z,9.59
2019-04-28T20:17:46.186Z,9.44
2019-04-28T20:20:13.673Z,9.49
2019-04-28T20:22:41.145Z,9.40
2019-04-28T20:25:08.564Z,9.31
2019-04-28T20:27:36.064Z,9.36
2019-04-28T20:30:03.533Z,9.45
2019-04-28T20:32:31.014Z,9.77
2019-04-28T20:34:58.486Z,10.23
2019-04-28T20:37:25.916Z,10.35
2019-04-28T20:40:03.335Z,10.24
2019-04-28T20:42:36.593Z,10.15
2019-04-28T20:45:04.077Z,10.33
2019-04-28T20:47:31.516Z,10.35
2019-04-28T20:49:58.984Z,10.39
2019-04-28T20:52:26.458Z,10.35
2019-04-28T20:54:54.260Z,10.34
2019-04-28T20:57:21.750Z,10.06
2019-04-28T20:59:49.255Z,10.42
2019-04-28T21:02:16.691Z,9.95
2019-04-28T21:04:44.110Z,10.17
2019-04-28T21:07:11.586Z,10.59
2019-04-28T21:09:39.092Z,10.78
2019-04-28T21:12:06.568Z,10.50
2019-04-28T21:14:34.061Z,10.58
2019-04-28T21:17:01.598Z,10.42
2019-04-28T21:19:29.053Z,10.19
2019-04-28T21:21:56.515Z,10.19
2019-04-28T21:24:23.998Z,10.61
2019-04-28T21:26:51.496Z,10.81
2019-04-28T21:29:20.402Z,10.94
2019-04-28T21:31:47.913Z,11.09
2019-04-28T21:34:15.358Z,11.20
2019-04-28T21:36:42.893Z,10.69
2019-04-28T21:39:10.330Z,10.38
2019-04-28T21:41:38.796Z,10.30
2019-04-28T21:44:21.745Z,10.66
2019-04-28T21:46:50.147Z,10.39
2019-04-28T21:49:20.949Z,10.31
2019-04-28T21:51:48.368Z,10.29
2019-04-28T21:54:15.847Z,10.11
2019-04-28T21:56:43.346Z,10.60
2019-04-28T21:59:10.806Z,10.77
2019-04-28T22:01:39.171Z,10.68
2019-04-28T22:04:06.655Z,10.63
2019-04-28T22:06:34.071Z,10.65
2019-04-28T22:09:01.546Z,10.03
2019-04-28T22:11:28.999Z,10.06
2019-04-28T22:13:56.471Z,9.92
2019-04-28T22:16:24.907Z,10.16
2019-04-28T22:18:52.451Z,10.38
2019-04-28T22:21:19.913Z,10.65
2019-04-28T22:23:50.940Z,10.66
2019-04-28T22:26:24.056Z,10.84
2019-04-28T22:28:51.504Z,10.86
2019-04-28T22:31:19.017Z,10.94
2019-04-28T22:33:46.454Z,10.92
2019-04-28T22:36:14.053Z,10.99
2019-04-28T22:38:41.517Z,11.05
2019-04-28T22:41:09.941Z,11.15
2019-04-28T22:43:37.408Z,11.21
2019-04-28T22:46:04.842Z,11.21
2019-04-28T22:48:32.323Z,11.13
2019-04-28T22:50:59.822Z,11.13
2019-04-28T22:53:27.283Z,11.16
2019-04-28T22:55:55.236Z,11.25
2019-04-28T22:58:24.188Z,11.23
2019-04-28T23:01:10.004Z,11.01
2019-04-28T23:03:39.250Z,10.39
2019-04-28T23:06:06.726Z,10.07
2019-04-28T23:08:34.221Z,9.92
2019-04-28T23:11:01.623Z,9.78
2019-04-28T23:13:29.100Z,9.82
2019-04-28T23:15:56.559Z,9.66
2019-04-28T23:18:24.114Z,9.62
2019-04-28T23:20:57.038Z,9.81
2019-04-28T23:23:24.506Z,10.07
2019-04-28T23:25:51.933Z,10.33
2019-04-28T23:28:19.368Z,10.40
2019-04-28T23:30:47.009Z,10.05
2019-04-28T23:33:14.702Z,9.83
2019-04-28T23:35:42.277Z,10.06
2019-04-28T23:38:09.789Z,10.35
2019-04-28T23:40:37.278Z,10.42
2019-04-28T23:43:04.728Z,10.48
2019-04-28T23:45:32.213Z,10.58
2019-04-28T23:47:59.728Z,10.70
2019-04-28T23:50:42.036Z,10.77
2019-04-28T23:53:09.502Z,10.86
2019-04-28T23:55:36.981Z,10.88
2019-04-28T23:58:04.465Z,10.89
